Caribou, Maine
Current Conditions -  °F | °C
As of 4:54 PM on Thursday 27 Nov 2014 (Local Time) from KCAR Reporting Station
Overcast Overcast  
Wind Chill: 11°   Ceiling: 2500
Heat Index: 22°   Visibility: 10mi
Dew Point: 15°   Wind: 10mph
Humidity: 75%   Direction: 340°NNW
Pressure: 29.95"   Gusts: NA
Location:  46.86°N, 68.01°W
Report Text: KCAR 272154Z AUTO 34009KT 10SM OVC025 M06/M09 A2995 RMK AO2 SLP156 T10561094 $
Loading
Personal Weather Stations






























Interactive Weather Map New forecast layout! Learn more

10-Day Weather Forecast

Advertisements
Track Severe Weather on mobile